Rochester, MN (55902)

2:26 PM CDT on October 21, 2014 (GMT -0500)
Britt Lane Rochester, MN | Change Station
CLOSE
Current Station
Personal Weather Station
Location: Rochester, MN
Elevation: 1099 ft
Nearby Weather Stations

Elev 1099 ft 44.01 °N, 92.49 °W | Updated 4 minutes ago

Clear
Clear
55.1 °F
Feels Like 55.1 °F
N
2.0
Wind Variable Wind from SW
Gusts 4.0 mph

Today
High -- | Low -- °F
--% Chance of Precip.
Yesterday
High -- | Low -- °F
Precip. -- in
7:32 AM 6:16 PM
Waning Crescent, 4% visible
Pressure 30.18 in
Visibility 10.0 miles
Clouds Clear
Dew Point 43 °F
Humidity 63%
Rainfall 0.00 in
Snow Depth Not available.
UV 4 out of 12
Pollen 1.40 out of 12
Air Quality Not available.
Flu Activity Not available.
METAR K9MN 211913Z AUTO 12006KT 10SM CLR 12/03 A3018 RMK AO1 T01230026

More Conditions Fewer Conditions

Pressure 30.18 in
Visibility 10.0 miles
Clouds Clear
Dew Point 43 °F
Humidity 63%
Rainfall 0.00 in
Snow Depth Not available.
UV 4 out of 12
Pollen 1.40 out of 12
Air Quality Not available.
Flu Activity Not available.
METAR K9MN 211913Z AUTO 12006KT 10SM CLR 12/03 A3018 RMK AO1 T01230026

More Conditions Fewer Conditions

10-Day Weather Forecast

Almanac

Astronomy

Oct. 21, 2014 Rise Set
Actual Time 7:32 AM CDT 6:16 PM CDT
Civil Twilight 7:02 AM CDT 6:45 PM CDT
Nautical Twilight 6:29 AM CDT 7:19 PM CDT
Astronomical Twilight 5:55 AM CDT 7:52 PM CDT
Moon 5:12 AM CDT 5:14 PM CDT
Length of Visible Light 11h 42m
Length of Day
10h 44m
Tomorrow will be 2m 51s shorter.
Waning Crescent, 4% of the Moon is Illuminated
Today
Waning Crescent
Oct 23
New
Oct 30
First Quarter
Nov 6
Full
Nov 14
Last Quarter

Today's Extremes

State Highs State Lows

Community

WunderPhotos

Upload Photos

1,763,751 photos uploaded!

Nearby

Snow Depth

Station Depth Elevation
No new snow has been reported.

Earthquake Activity

City Distance Mag. Time & Date
No recent earthquake activity has been reported nearby.
Minimum magnitude displayed is 2.5.

Coastal Water Temperatures

Place Temperature
No Stations Reporting

Nearby Weather Stations